Time;durP1;ratioP1;P1;durP2;ratioP2;P2;SDS_P1;SDS_P2;PMS_P1;PMS_P2;Temp;Humidity;BMP_temperature;BMP_pressure;BME280_temperature;BME280_humidity;BME280_pressure;Samples;Min_cycle;Max_cycle;Signal;HPM_P1;HPM_P2
2023/10/26 00:00:31;;;;;;;3.27;1.03;;;13.10;99.90;;;;;;5033732;28;20865;-71
2023/10/26 00:02:57;;;;;;;1.13;0.80;;;13.20;99.90;;;;;;5033496;28;20171;-72
2023/10/26 00:05:23;;;;;;;1.50;0.90;;;13.20;99.90;;;;;;5033551;28;20247;-71
2023/10/26 00:07:48;;;;;;;1.53;1.00;;;13.20;99.90;;;;;;5033971;28;20207;-73
2023/10/26 00:10:14;;;;;;;1.50;1.07;;;13.30;99.90;;;;;;5033257;28;20431;-73
2023/10/26 00:12:39;;;;;;;3.17;1.07;;;13.40;99.90;;;;;;5015095;28;20239;-71
2023/10/26 00:15:06;;;;;;;1.50;1.00;;;13.40;99.90;;;;;;5033229;28;20181;-71
2023/10/26 00:17:31;;;;;;;1.90;0.93;;;13.50;99.90;;;;;;5032970;28;20205;-72
2023/10/26 00:19:57;;;;;;;1.77;0.80;;;13.50;99.90;;;;;;5031826;28;20413;-71
2023/10/26 00:22:23;;;;;;;2.17;1.27;;;13.60;99.90;;;;;;5032594;28;20189;-71
2023/10/26 00:24:50;;;;;;;1.60;1.20;;;13.60;99.90;;;;;;5032745;28;20547;-72
2023/10/26 00:27:15;;;;;;;1.50;1.30;;;13.50;99.90;;;;;;5014728;28;20183;-72
2023/10/26 00:29:41;;;;;;;2.87;2.10;;;13.30;99.90;;;;;;5032444;28;20949;-72
2023/10/26 00:32:07;;;;;;;3.17;1.33;;;13.40;99.90;;;;;;5031753;28;20205;-72
2023/10/26 00:34:34;;;;;;;1.40;1.17;;;13.50;99.90;;;;;;5032007;28;20213;-71
2023/10/26 00:37:00;;;;;;;1.90;1.10;;;13.60;99.90;;;;;;5032542;28;20463;-71
2023/10/26 00:39:26;;;;;;;1.33;0.93;;;13.60;99.90;;;;;;5032957;28;20892;-72
2023/10/26 00:41:53;;;;;;;1.10;1.00;;;13.50;99.90;;;;;;5033001;28;20315;-71
2023/10/26 00:44:20;;;;;;;2.33;1.23;;;13.50;99.90;;;;;;5033815;28;20186;-71
2023/10/26 00:46:45;;;;;;;4.93;1.40;;;13.50;99.90;;;;;;5032413;28;20421;-72
2023/10/26 00:49:14;;;;;;;3.30;1.20;;;13.40;99.90;;;;;;5032246;28;20431;-72
2023/10/26 00:51:40;;;;;;;3.63;0.90;;;13.30;99.90;;;;;;5032406;28;20191;-72
2023/10/26 00:54:07;;;;;;;2.70;1.20;;;13.20;99.90;;;;;;5032197;28;20894;-72
2023/10/26 00:56:33;;;;;;;3.97;1.20;;;13.20;99.90;;;;;;5032669;28;20948;-71
2023/10/26 00:58:59;;;;;;;3.43;1.37;;;13.10;99.90;;;;;;5032260;28;20502;-71
2023/10/26 01:01:26;;;;;;;1.73;0.90;;;13.00;99.90;;;;;;5032117;28;20450;-72
2023/10/26 01:03:53;;;;;;;2.90;1.33;;;13.00;99.90;;;;;;5032426;28;20415;-69
2023/10/26 01:06:18;;;;;;;1.50;1.00;;;12.80;99.90;;;;;;5032333;28;20410;-71
2023/10/26 01:08:44;;;;;;;2.23;0.73;;;12.70;99.90;;;;;;5031864;28;20411;-72
2023/10/26 01:11:10;;;;;;;2.07;1.00;;;12.70;99.90;;;;;;5031600;28;20215;-72
2023/10/26 01:13:36;;;;;;;1.57;1.00;;;12.70;99.90;;;;;;5032462;28;20263;-71
2023/10/26 01:16:04;;;;;;;1.93;0.90;;;12.70;99.90;;;;;;5032136;28;20181;-71
2023/10/26 01:18:30;;;;;;;1.93;1.00;;;12.70;99.90;;;;;;5031905;28;20527;-73
2023/10/26 01:20:56;;;;;;;5.13;1.03;;;12.60;99.90;;;;;;5031921;28;20436;-71
2023/10/26 01:23:21;;;;;;;2.37;1.10;;;12.60;99.90;;;;;;5031954;28;20776;-71
2023/10/26 01:25:51;;;;;;;2.23;0.90;;;12.50;99.90;;;;;;5031670;28;20266;-72
2023/10/26 01:28:17;;;;;;;1.27;0.90;;;12.40;99.90;;;;;;5031863;28;20233;-72
2023/10/26 01:30:42;;;;;;;2.13;1.20;;;12.40;99.90;;;;;;5031723;28;20799;-72
2023/10/26 01:33:08;;;;;;;2.70;1.50;;;12.40;99.90;;;;;;5031920;28;20254;-71
2023/10/26 01:35:40;;;;;;;4.73;1.03;;;12.30;99.90;;;;;;5031840;28;20187;-71
2023/10/26 01:38:05;;;;;;;4.33;1.23;;;12.40;99.90;;;;;;5031571;28;20218;-71
2023/10/26 01:40:32;;;;;;;1.30;0.90;;;12.30;99.90;;;;;;5014069;28;20492;-72
2023/10/26 01:42:57;;;;;;;1.53;1.10;;;12.30;99.90;;;;;;5034095;28;20287;-72
2023/10/26 01:45:23;;;;;;;4.60;0.97;;;12.30;99.90;;;;;;5017588;28;20402;-71
2023/10/26 01:47:49;;;;;;;1.30;0.80;;;12.20;99.90;;;;;;5035794;28;20553;-71
2023/10/26 01:50:14;;;;;;;1.00;0.70;;;12.30;99.90;;;;;;5035341;28;20229;-71
2023/10/26 01:52:41;;;;;;;1.53;0.97;;;12.20;99.90;;;;;;5035218;28;20202;-71
2023/10/26 01:55:07;;;;;;;2.10;0.90;;;12.20;99.90;;;;;;5035634;28;20184;-71
2023/10/26 01:57:33;;;;;;;2.00;0.83;;;12.20;99.90;;;;;;5035525;28;20789;-72
2023/10/26 01:59:59;;;;;;;2.07;1.00;;;12.20;99.90;;;;;;5035177;28;20411;-71
2023/10/26 02:02:24;;;;;;;5.90;1.13;;;12.10;99.90;;;;;;5035433;28;20558;-71
2023/10/26 02:04:50;;;;;;;2.83;1.00;;;12.00;99.90;;;;;;5035388;28;20420;-72
2023/10/26 02:07:15;;;;;;;1.73;1.03;;;12.10;99.90;;;;;;5035205;28;20190;-72
2023/10/26 02:09:41;;;;;;;1.37;0.90;;;12.10;99.90;;;;;;5035125;28;20266;-71
2023/10/26 02:12:07;;;;;;;1.40;1.10;;;12.00;99.90;;;;;;5047544;22;20223;-74
2023/10/26 02:14:32;;;;;;;4.03;1.30;;;11.90;99.90;;;;;;5016240;28;20164;-74
2023/10/26 02:16:58;;;;;;;1.50;0.90;;;11.90;99.90;;;;;;5016208;28;20199;-74
2023/10/26 02:19:23;;;;;;;1.90;1.07;;;11.80;99.90;;;;;;5016509;28;20171;-74
2023/10/26 02:21:49;;;;;;;0.90;0.80;;;12.00;99.90;;;;;;5015705;28;20180;-74
2023/10/26 02:24:14;;;;;;;4.50;1.00;;;12.00;99.90;;;;;;5016196;28;20207;-74
2023/10/26 02:26:40;;;;;;;3.20;0.90;;;12.00;99.90;;;;;;5014832;28;20177;-74
2023/10/26 02:29:05;;;;;;;0.90;0.67;;;12.10;99.90;;;;;;5016007;28;20254;-74
2023/10/26 02:31:31;;;;;;;2.63;0.80;;;12.10;99.90;;;;;;5015954;28;20215;-74
2023/10/26 02:33:56;;;;;;;2.80;1.10;;;12.10;99.90;;;;;;5016070;28;20246;-74
2023/10/26 02:36:22;;;;;;;1.63;0.60;;;12.10;99.90;;;;;;5015462;28;20172;-74
2023/10/26 02:38:48;;;;;;;1.13;0.87;;;12.00;99.90;;;;;;5015461;28;20196;-74
2023/10/26 02:41:13;;;;;;;3.20;1.10;;;12.10;99.90;;;;;;5016228;28;20242;-74
2023/10/26 02:43:39;;;;;;;2.03;1.03;;;12.30;99.90;;;;;;5016076;28;20165;-74
2023/10/26 02:46:05;;;;;;;1.57;0.80;;;12.30;99.90;;;;;;5015708;28;20167;-74
2023/10/26 02:48:30;;;;;;;2.07;0.80;;;12.30;99.90;;;;;;5014455;28;20177;-74
2023/10/26 02:50:56;;;;;;;2.57;0.90;;;12.20;99.90;;;;;;5014292;28;20468;-74
2023/10/26 02:53:22;;;;;;;1.10;0.67;;;12.20;99.90;;;;;;5015196;28;20180;-74
2023/10/26 02:55:47;;;;;;;1.93;1.00;;;12.00;99.90;;;;;;5015154;28;20166;-74
2023/10/26 02:58:13;;;;;;;2.50;1.20;;;12.20;99.90;;;;;;5015491;28;20445;-74
2023/10/26 03:00:39;;;;;;;1.40;0.80;;;12.20;99.90;;;;;;5015507;28;20168;-74
2023/10/26 03:03:04;;;;;;;1.90;1.00;;;12.00;99.90;;;;;;5015395;28;20670;-74
2023/10/26 03:05:30;;;;;;;2.60;0.80;;;12.10;99.90;;;;;;5015680;28;20248;-74
2023/10/26 03:07:56;;;;;;;1.20;0.70;;;12.10;99.90;;;;;;5014092;28;20184;-74
2023/10/26 03:10:22;;;;;;;1.67;0.80;;;12.20;99.90;;;;;;5013934;28;20412;-73
2023/10/26 03:12:49;;;;;;;1.23;0.70;;;12.30;99.90;;;;;;5015227;28;20614;-74
2023/10/26 03:15:14;;;;;;;1.10;0.90;;;12.30;99.90;;;;;;5015197;28;20416;-74
2023/10/26 03:17:40;;;;;;;2.30;0.77;;;12.30;99.90;;;;;;5015256;28;21026;-74
2023/10/26 03:20:06;;;;;;;1.70;0.97;;;12.40;99.90;;;;;;5015254;28;20169;-73
2023/10/26 03:22:35;;;;;;;1.10;0.87;;;12.30;99.90;;;;;;5014982;28;20561;-74
2023/10/26 03:25:01;;;;;;;2.60;0.80;;;12.30;99.90;;;;;;5013822;28;20507;-74
2023/10/26 03:27:26;;;;;;;2.80;1.20;;;12.30;99.90;;;;;;5015053;28;20463;-73
2023/10/26 03:29:53;;;;;;;1.50;1.13;;;12.10;99.90;;;;;;5014773;28;20882;-74
2023/10/26 03:32:19;;;;;;;2.03;1.47;;;12.00;99.90;;;;;;5013482;28;20199;-74
2023/10/26 03:34:44;;;;;;;1.77;1.10;;;12.00;99.90;;;;;;5014820;28;20847;-73
2023/10/26 03:37:10;;;;;;;1.27;1.10;;;11.90;99.90;;;;;;5014656;28;20726;-74
2023/10/26 03:39:36;;;;;;;5.30;1.13;;;11.90;99.90;;;;;;5014687;28;20175;-74
2023/10/26 03:42:01;;;;;;;2.60;1.00;;;11.90;99.90;;;;;;5014686;28;20180;-74
2023/10/26 03:44:28;;;;;;;2.60;0.90;;;11.80;99.90;;;;;;5014866;28;20175;-74
2023/10/26 03:46:53;;;;;;;1.63;0.90;;;11.70;99.90;;;;;;5014616;28;20156;-74
2023/10/26 03:49:19;;;;;;;1.70;1.40;;;11.60;99.90;;;;;;5014656;28;20409;-74
2023/10/26 03:51:46;;;;;;;2.00;1.30;;;11.60;99.90;;;;;;5014442;28;20188;-74
2023/10/26 03:54:12;;;;;;;1.70;0.90;;;11.70;99.90;;;;;;5014681;28;20898;-74
2023/10/26 03:56:38;;;;;;;1.50;1.00;;;11.60;99.90;;;;;;5014612;28;20403;-73
2023/10/26 03:59:03;;;;;;;4.10;1.10;;;11.60;99.90;;;;;;5014256;28;20221;-74
2023/10/26 04:01:29;;;;;;;2.70;1.10;;;11.60;99.90;;;;;;5014248;28;20211;-74
2023/10/26 04:03:54;;;;;;;1.37;1.10;;;11.60;99.90;;;;;;5014199;28;20171;-74
2023/10/26 04:06:20;;;;;;;1.70;0.90;;;11.60;99.90;;;;;;5013883;28;20167;-74
2023/10/26 04:08:45;;;;;;;1.23;0.83;;;11.50;99.90;;;;;;5014717;28;20665;-74
2023/10/26 04:11:17;;;;;;;2.80;1.20;;;11.50;99.90;;;;;;5014183;28;20206;-73
2023/10/26 04:13:43;;;;;;;2.33;1.13;;;11.50;99.90;;;;;;5012944;28;20179;-75
2023/10/26 04:16:09;;;;;;;3.77;1.10;;;11.50;99.90;;;;;;5014892;28;20399;-74
2023/10/26 04:18:35;;;;;;;2.70;1.03;;;11.50;99.90;;;;;;5014104;28;20976;-74
2023/10/26 04:21:00;;;;;;;2.27;1.17;;;11.50;99.90;;;;;;5013912;28;20231;-74
2023/10/26 04:23:27;;;;;;;2.47;1.20;;;11.60;99.90;;;;;;5018302;28;20586;-73
2023/10/26 04:25:53;;;;;;;3.30;0.90;;;11.60;99.90;;;;;;5021941;28;20161;-73
2023/10/26 04:28:18;;;;;;;1.57;1.00;;;11.60;99.90;;;;;;5015205;28;20414;-74
2023/10/26 04:30:47;;;;;;;1.63;1.23;;;11.60;99.90;;;;;;5023939;28;20411;-74
2023/10/26 04:33:13;;;;;;;2.03;1.33;;;11.70;99.90;;;;;;5032490;28;20176;-74
2023/10/26 04:35:42;;;;;;;2.23;1.30;;;11.60;99.90;;;;;;5028376;28;20452;-73
2023/10/26 04:38:08;;;;;;;2.10;0.93;;;11.60;99.90;;;;;;5004061;28;20458;-73
2023/10/26 04:40:34;;;;;;;2.10;0.87;;;11.60;99.90;;;;;;5004328;28;20426;-73
2023/10/26 04:43:00;;;;;;;2.47;0.97;;;11.60;99.90;;;;;;5012032;28;20199;-74
2023/10/26 04:45:25;;;;;;;3.07;1.07;;;11.60;99.90;;;;;;5013094;28;20426;-74
2023/10/26 04:47:51;;;;;;;4.87;1.37;;;11.60;99.90;;;;;;5012794;28;20176;-74
2023/10/26 04:50:17;;;;;;;2.40;0.97;;;11.70;99.90;;;;;;5013119;28;20176;-74
2023/10/26 04:52:42;;;;;;;1.60;1.50;;;11.80;99.90;;;;;;5012948;28;20195;-73
2023/10/26 04:55:08;;;;;;;2.80;0.80;;;11.80;99.90;;;;;;5012953;28;20183;-73
2023/10/26 04:57:35;;;;;;;1.90;0.90;;;11.80;99.90;;;;;;5036374;28;20315;-73
2023/10/26 05:00:00;;;;;;;1.77;1.13;;;11.80;99.90;;;;;;5012850;28;20657;-73
2023/10/26 05:02:26;;;;;;;2.43;1.30;;;11.90;99.90;;;;;;5013173;28;20440;-74
2023/10/26 05:04:51;;;;;;;7.30;2.37;;;12.00;99.90;;;;;;5013296;28;20172;-74
2023/10/26 05:07:17;;;;;;;4.30;2.00;;;12.00;99.90;;;;;;5013110;28;20184;-73
2023/10/26 05:09:43;;;;;;;1.20;1.00;;;11.90;99.90;;;;;;5013227;28;20247;-74
2023/10/26 05:12:08;;;;;;;2.47;1.20;;;11.90;99.90;;;;;;5012889;28;20218;-74
2023/10/26 05:14:34;;;;;;;1.00;0.80;;;11.80;99.90;;;;;;5013357;28;20172;-74
2023/10/26 05:16:59;;;;;;;2.70;1.10;;;11.90;99.90;;;;;;5012762;28;20203;-74
2023/10/26 05:19:25;;;;;;;1.57;1.00;;;11.90;99.90;;;;;;5013297;28;20212;-75
2023/10/26 05:21:50;;;;;;;1.63;1.03;;;12.00;99.90;;;;;;5012915;28;20191;-75
2023/10/26 05:24:16;;;;;;;3.60;1.17;;;12.00;99.90;;;;;;5013097;28;20552;-72
2023/10/26 05:26:41;;;;;;;4.33;1.30;;;12.00;99.90;;;;;;5013557;28;20288;-74
2023/10/26 05:29:07;;;;;;;1.70;0.90;;;12.00;99.90;;;;;;5013072;28;20173;-74
2023/10/26 05:31:32;;;;;;;2.43;1.30;;;12.00;99.90;;;;;;5012835;28;20202;-74
2023/10/26 05:33:58;;;;;;;1.50;1.40;;;12.00;99.90;;;;;;5012948;28;20252;-74
2023/10/26 05:36:24;;;;;;;1.93;1.10;;;12.00;99.90;;;;;;5013155;28;20199;-74
2023/10/26 05:38:50;;;;;;;1.63;1.30;;;12.00;99.90;;;;;;5012997;28;20225;-75
2023/10/26 05:41:15;;;;;;;4.17;1.40;;;12.00;99.90;;;;;;5012729;28;20204;-74
2023/10/26 05:43:41;;;;;;;2.60;1.10;;;12.00;99.90;;;;;;5013300;28;20473;-74
2023/10/26 05:46:06;;;;;;;2.00;1.30;;;12.00;99.90;;;;;;5012669;28;20198;-74
2023/10/26 05:48:33;;;;;;;6.40;1.77;;;12.10;99.90;;;;;;5036047;28;20690;-74
2023/10/26 05:50:59;;;;;;;2.97;1.07;;;12.10;99.90;;;;;;5012599;28;20218;-74
2023/10/26 05:53:25;;;;;;;4.47;1.57;;;12.00;99.90;;;;;;5013213;28;20527;-74
2023/10/26 05:55:57;;;;;;;7.23;1.83;;;11.90;99.90;;;;;;5012922;28;20181;-74
2023/10/26 05:58:23;;;;;;;2.53;1.50;;;12.10;99.90;;;;;;5013204;28;20449;-74
2023/10/26 06:00:48;;;;;;;1.73;1.53;;;12.20;99.90;;;;;;5013247;28;20427;-74
2023/10/26 06:03:14;;;;;;;2.70;1.30;;;12.20;99.90;;;;;;5011727;28;20614;-74
2023/10/26 06:05:39;;;;;;;5.80;2.60;;;12.30;99.90;;;;;;5012813;28;20176;-74
2023/10/26 06:08:05;;;;;;;2.10;1.20;;;12.20;99.90;;;;;;5012835;28;20180;-74
2023/10/26 06:10:30;;;;;;;2.23;1.50;;;12.20;99.90;;;;;;5012348;28;20636;-74
2023/10/26 06:12:56;;;;;;;3.03;1.50;;;12.30;99.90;;;;;;5011867;28;20217;-74
2023/10/26 06:15:22;;;;;;;4.17;0.93;;;12.40;99.90;;;;;;5012425;28;20169;-74
2023/10/26 06:17:48;;;;;;;1.60;1.10;;;12.50;99.90;;;;;;5012247;28;20192;-74
2023/10/26 06:20:14;;;;;;;1.67;1.17;;;12.50;99.90;;;;;;5012168;28;20462;-73
2023/10/26 06:22:39;;;;;;;1.77;1.20;;;12.50;99.90;;;;;;5012562;28;20221;-73
2023/10/26 06:25:05;;;;;;;2.40;1.60;;;12.50;99.90;;;;;;5012065;28;21037;-73
2023/10/26 06:27:31;;;;;;;4.20;1.67;;;12.60;99.90;;;;;;5012226;28;20548;-74
2023/10/26 06:29:57;;;;;;;1.90;1.30;;;12.50;99.90;;;;;;5014154;28;20257;-73
2023/10/26 06:32:23;;;;;;;4.87;2.03;;;12.70;99.90;;;;;;5016414;28;20201;-74
2023/10/26 06:34:50;;;;;;;3.03;1.80;;;12.70;99.90;;;;;;5016135;28;20406;-73
2023/10/26 06:37:16;;;;;;;2.40;1.50;;;12.60;99.90;;;;;;5015902;28;20203;-73
2023/10/26 06:39:41;;;;;;;2.57;1.53;;;12.50;99.90;;;;;;5016019;28;20409;-72
2023/10/26 06:42:07;;;;;;;3.40;2.00;;;12.60;99.90;;;;;;5015920;28;20188;-73
2023/10/26 06:44:33;;;;;;;4.50;1.67;;;12.80;99.90;;;;;;5016140;28;20252;-73
2023/10/26 06:46:58;;;;;;;2.10;1.13;;;12.80;99.90;;;;;;5016007;28;20326;-72
2023/10/26 06:49:24;;;;;;;4.23;1.30;;;13.00;99.90;;;;;;5015892;28;20168;-72
2023/10/26 06:51:49;;;;;;;2.73;1.03;;;13.10;99.90;;;;;;5015758;28;20242;-73
2023/10/26 06:54:16;;;;;;;3.07;1.30;;;12.90;99.90;;;;;;5015638;28;20173;-74
2023/10/26 06:56:44;;;;;;;2.50;1.30;;;12.90;99.90;;;;;;5015067;28;20258;-73
2023/10/26 06:59:10;;;;;;;1.80;1.50;;;13.00;99.90;;;;;;5015725;28;20890;-77
2023/10/26 07:01:37;;;;;;;2.07;1.60;;;13.20;99.90;;;;;;5017699;28;20422;-79
2023/10/26 07:04:03;;;;;;;2.77;1.60;;;13.30;99.90;;;;;;5018056;28;20163;-78
2023/10/26 07:06:29;;;;;;;1.27;1.00;;;13.20;99.90;;;;;;5014197;28;20743;-75
2023/10/26 07:08:55;;;;;;;1.90;1.27;;;13.20;99.90;;;;;;5013476;28;20680;-74
2023/10/26 07:11:20;;;;;;;1.93;1.10;;;13.20;99.90;;;;;;5014701;28;20444;-74
2023/10/26 07:13:46;;;;;;;2.27;1.60;;;13.20;99.90;;;;;;5014856;28;20183;-76
2023/10/26 07:16:12;;;;;;;2.47;1.60;;;13.30;99.90;;;;;;5015299;28;20231;-77
2023/10/26 07:18:37;;;;;;;3.33;1.63;;;13.30;99.90;;;;;;5012766;28;20299;-76
2023/10/26 07:21:07;;;;;;;2.23;1.80;;;13.30;99.90;;;;;;5014095;28;20494;-76
2023/10/26 07:23:33;;;;;;;1.93;1.60;;;13.10;99.90;;;;;;5014191;28;20178;-75
2023/10/26 07:25:59;;;;;;;1.97;1.67;;;13.20;99.90;;;;;;5015099;28;20448;-76
2023/10/26 07:28:25;;;;;;;1.83;1.10;;;13.40;99.90;;;;;;5015170;28;20434;-75
2023/10/26 07:30:53;;;;;;;1.40;1.30;;;13.50;99.90;;;;;;5014738;28;20171;-75
2023/10/26 07:33:19;;;;;;;1.53;1.10;;;13.40;99.90;;;;;;5015049;28;20163;-74
2023/10/26 07:35:50;;;;;;;2.40;1.77;;;13.60;99.90;;;;;;5014983;28;20404;-74
2023/10/26 07:38:16;;;;;;;2.00;1.37;;;13.60;99.90;;;;;;5015070;28;20451;-74
2023/10/26 07:40:48;;;;;;;1.60;1.17;;;13.70;99.90;;;;;;5014684;28;20410;-74
2023/10/26 07:43:14;;;;;;;2.83;1.50;;;13.80;99.90;;;;;;5015850;28;20386;-76
2023/10/26 07:45:39;;;;;;;1.47;1.10;;;13.70;99.90;;;;;;5015461;28;20461;-77
2023/10/26 07:48:05;;;;;;;2.57;1.30;;;13.70;99.90;;;;;;5016645;28;20254;-78
2023/10/26 07:50:30;;;;;;;2.07;1.10;;;13.70;99.90;;;;;;5019865;28;20186;-79
2023/10/26 07:52:56;;;;;;;2.63;1.30;;;13.80;99.90;;;;;;5014899;28;20199;-76
2023/10/26 07:55:22;;;;;;;2.33;0.97;;;13.80;99.90;;;;;;5015501;28;20178;-73
2023/10/26 07:57:48;;;;;;;1.43;1.03;;;13.70;99.90;;;;;;5014659;28;20506;-73
2023/10/26 08:00:13;;;;;;;1.20;1.10;;;13.70;99.90;;;;;;5013419;28;20171;-75
2023/10/26 08:02:39;;;;;;;3.00;1.27;;;13.70;99.90;;;;;;5014879;28;20188;-76
2023/10/26 08:05:05;;;;;;;1.87;0.90;;;13.90;99.90;;;;;;5021932;28;20407;-75
2023/10/26 08:07:31;;;;;;;1.77;1.43;;;13.70;99.90;;;;;;5028593;28;20179;-74
2023/10/26 08:09:57;;;;;;;2.37;1.17;;;13.80;99.90;;;;;;5019449;28;20412;-75
2023/10/26 08:12:23;;;;;;;1.27;1.00;;;13.70;99.90;;;;;;5039083;23;20231;-73
2023/10/26 08:14:51;;;;;;;1.50;1.10;;;14.00;99.90;;;;;;5032385;28;20617;-74
2023/10/26 08:17:16;;;;;;;1.70;1.00;;;13.90;99.90;;;;;;5032717;28;20444;-71
2023/10/26 08:19:42;;;;;;;1.93;1.47;;;13.90;99.90;;;;;;5032910;28;20417;-71
2023/10/26 08:22:09;;;;;;;1.40;0.87;;;13.80;99.90;;;;;;5032971;28;20203;-72
2023/10/26 08:24:35;;;;;;;1.97;1.00;;;13.80;99.90;;;;;;5032262;28;20161;-74
2023/10/26 08:27:00;;;;;;;2.23;1.50;;;13.80;99.90;;;;;;5032542;28;20409;-70
2023/10/26 08:29:28;;;;;;;3.13;0.80;;;13.60;99.90;;;;;;5033383;28;20571;-73
2023/10/26 08:31:53;;;;;;;3.60;0.87;;;13.80;99.90;;;;;;5033207;28;20192;-70
2023/10/26 08:34:19;;;;;;;1.63;1.00;;;13.90;99.90;;;;;;5033744;28;20402;-73
2023/10/26 08:36:46;;;;;;;1.30;0.70;;;14.00;99.90;;;;;;5032877;28;20175;-75
2023/10/26 08:39:12;;;;;;;2.40;0.90;;;14.10;99.90;;;;;;5032600;28;20603;-72
2023/10/26 08:41:38;;;;;;;1.10;0.93;;;14.10;99.90;;;;;;5032107;28;20505;-73
2023/10/26 08:44:04;;;;;;;1.50;0.90;;;14.40;99.90;;;;;;5032514;28;20405;-74
2023/10/26 08:46:30;;;;;;;2.90;1.10;;;14.50;99.90;;;;;;5032445;28;20645;-73
2023/10/26 08:48:57;;;;;;;1.87;1.00;;;14.70;99.90;;;;;;5031878;28;20452;-74
2023/10/26 08:51:23;;;;;;;1.60;0.97;;;14.80;99.90;;;;;;5031642;28;20226;-75
2023/10/26 08:53:49;;;;;;;1.90;1.00;;;14.90;99.90;;;;;;5031891;28;20414;-75
2023/10/26 08:56:20;;;;;;;1.90;1.30;;;14.90;99.90;;;;;;5032299;28;20170;-74
2023/10/26 08:58:47;;;;;;;1.63;1.20;;;15.10;99.90;;;;;;5032189;28;20439;-76
2023/10/26 09:01:12;;;;;;;1.73;0.90;;;15.20;99.90;;;;;;5032095;28;20427;-73
2023/10/26 09:03:38;;;;;;;1.63;1.33;;;15.30;99.90;;;;;;5032190;28;20412;-75
2023/10/26 09:06:04;;;;;;;2.30;0.87;;;15.40;99.90;;;;;;5032297;28;20553;-74
2023/10/26 09:08:31;;;;;;;1.43;0.90;;;15.30;99.90;;;;;;5031918;28;20179;-75
2023/10/26 09:10:56;;;;;;;1.50;0.80;;;15.30;99.90;;;;;;5032158;28;20417;-73
2023/10/26 09:13:27;;;;;;;1.90;1.37;;;15.20;99.90;;;;;;5031630;28;20530;-74
2023/10/26 09:15:57;;;;;;;1.43;1.10;;;15.20;99.90;;;;;;5031138;28;20661;-77
2023/10/26 09:18:23;;;;;;;1.50;1.17;;;15.00;99.90;;;;;;5014149;28;20451;-71
2023/10/26 09:21:08;;;;;;;3.00;1.30;;;15.00;99.90;;;;;;5031789;28;20423;-71
2023/10/26 09:23:35;;;;;;;2.03;1.33;;;14.90;99.90;;;;;;5031477;28;20420;-76
2023/10/26 09:26:04;;;;;;;2.70;1.30;;;14.90;99.90;;;;;;5030741;28;20747;-75
2023/10/26 09:28:30;;;;;;;1.83;1.10;;;14.70;99.90;;;;;;5012960;28;20428;-76
2023/10/26 09:30:59;;;;;;;2.37;1.47;;;14.60;99.90;;;;;;5031298;28;20761;-75
2023/10/26 09:33:26;;;;;;;3.53;1.47;;;14.50;99.90;;;;;;5031146;28;20922;-75
2023/10/26 09:35:52;;;;;;;3.60;1.63;;;14.60;99.90;;;;;;5031436;28;20460;-74
2023/10/26 09:38:33;;;;;;;2.30;1.60;;;14.70;99.90;;;;;;5030879;28;20959;-75
2023/10/26 09:41:00;;;;;;;3.27;1.60;;;14.50;99.90;;;;;;5029027;28;20866;-72
2023/10/26 09:43:25;;;;;;;4.97;1.77;;;14.50;99.90;;;;;;5032036;28;20426;-75
2023/10/26 09:45:51;;;;;;;1.50;1.20;;;14.30;99.90;;;;;;5013596;28;20504;-73
2023/10/26 09:48:18;;;;;;;2.37;1.40;;;14.30;99.90;;;;;;5031613;28;20173;-74
2023/10/26 09:50:45;;;;;;;1.80;1.30;;;14.20;99.90;;;;;;5013802;28;20550;-75
2023/10/26 09:53:11;;;;;;;3.73;1.20;;;14.20;99.90;;;;;;5031325;28;20834;-73
2023/10/26 09:55:37;;;;;;;4.00;1.70;;;14.20;99.90;;;;;;5031493;28;20444;-73
2023/10/26 09:58:05;;;;;;;2.87;1.30;;;14.20;99.90;;;;;;5031239;28;20490;-75
2023/10/26 10:00:33;;;;;;;2.73;1.30;;;14.10;99.90;;;;;;5013407;28;20254;-76
2023/10/26 10:03:08;;;;;;;2.30;1.30;;;14.20;99.90;;;;;;5031757;28;20460;-76
2023/10/26 10:05:42;;;;;;;1.70;1.50;;;14.10;99.90;;;;;;5032687;28;20420;-76
2023/10/26 10:08:08;;;;;;;2.37;1.37;;;14.10;99.90;;;;;;5050356;28;20391;-74
2023/10/26 10:10:35;;;;;;;3.83;2.20;;;14.20;99.90;;;;;;5034921;28;20420;-74
2023/10/26 10:13:01;;;;;;;1.90;1.73;;;14.20;99.90;;;;;;5016890;28;20468;-74
2023/10/26 10:15:36;;;;;;;1.53;1.40;;;14.20;99.90;;;;;;5035010;28;20522;-74
2023/10/26 10:18:07;;;;;;;4.67;3.53;;;14.20;99.90;;;;;;5035040;28;20504;-74
2023/10/26 10:20:35;;;;;;;5.30;3.70;;;13.90;99.90;;;;;;5034712;28;20512;-75
2023/10/26 10:23:03;;;;;;;4.20;3.80;;;13.70;99.90;;;;;;5034146;28;20507;-73
2023/10/26 10:25:50;;;;;;;6.33;4.07;;;13.70;99.90;;;;;;5034689;28;20475;-72
2023/10/26 10:28:16;;;;;;;4.40;3.97;;;13.60;99.90;;;;;;5034954;28;20457;-73
2023/10/26 10:30:59;;;;;;;5.13;4.27;;;13.50;99.90;;;;;;5034326;28;20418;-72
2023/10/26 10:33:27;;;;;;;5.57;3.60;;;13.60;99.90;;;;;;5033977;28;20438;-73
2023/10/26 10:36:01;;;;;;;6.73;4.60;;;13.50;99.90;;;;;;5034399;28;20403;-74
2023/10/26 10:38:28;;;;;;;7.47;4.80;;;13.60;99.90;;;;;;5034305;28;20458;-72
2023/10/26 10:40:53;;;;;;;4.30;4.00;;;13.70;99.90;;;;;;5034415;28;20417;-74
2023/10/26 10:43:45;;;;;;;6.87;6.27;;;13.70;99.90;;;;;;5034584;28;20425;-73
2023/10/26 10:46:13;;;;;;;4.60;3.90;;;14.00;99.90;;;;;;5034727;28;20699;-76
2023/10/26 10:49:03;;;;;;;6.53;4.17;;;13.90;99.90;;;;;;5034361;28;20414;-76
2023/10/26 10:51:31;;;;;;;5.07;4.20;;;13.80;99.90;;;;;;5034303;28;20461;-77
2023/10/26 10:53:57;;;;;;;4.20;3.80;;;13.90;99.90;;;;;;5034493;28;20492;-74
2023/10/26 10:56:25;;;;;;;3.80;3.40;;;14.20;99.90;;;;;;5034512;28;20516;-74
2023/10/26 10:58:52;;;;;;;3.10;2.90;;;14.30;99.90;;;;;;5034665;28;20818;-71
2023/10/26 11:01:20;;;;;;;3.93;3.63;;;14.20;99.90;;;;;;5034179;28;20468;-75
2023/10/26 11:03:46;;;;;;;3.23;2.80;;;14.30;99.90;;;;;;5035181;28;20420;-75
2023/10/26 11:06:15;;;;;;;3.63;3.10;;;14.50;99.90;;;;;;5033812;28;20513;-76
2023/10/26 11:08:40;;;;;;;3.50;3.17;;;14.70;99.90;;;;;;5034438;28;20475;-74
2023/10/26 11:11:06;;;;;;;2.00;1.90;;;14.80;99.90;;;;;;5034341;28;20418;-75
2023/10/26 11:13:31;;;;;;;3.03;2.73;;;14.70;99.90;;;;;;5034565;28;20190;-73
2023/10/26 11:15:57;;;;;;;2.30;2.10;;;14.90;99.90;;;;;;5015869;28;20259;-72
2023/10/26 11:18:23;;;;;;;2.20;2.00;;;14.90;99.90;;;;;;5034181;28;20244;-75
2023/10/26 11:20:49;;;;;;;2.40;2.20;;;15.10;99.90;;;;;;5034207;28;20166;-74
2023/10/26 11:23:16;;;;;;;2.07;1.87;;;15.10;99.90;;;;;;5034124;28;20432;-78
2023/10/26 11:25:44;;;;;;;2.33;2.13;;;15.30;99.90;;;;;;5034583;28;20769;-74
2023/10/26 11:28:10;;;;;;;2.53;2.33;;;15.60;99.90;;;;;;5033748;28;20421;-74
2023/10/26 11:30:49;;;;;;;2.70;2.27;;;15.60;99.90;;;;;;5033933;28;20407;-72
2023/10/26 11:33:34;;;;;;;2.60;2.40;;;15.50;99.90;;;;;;5033983;28;20434;-76
2023/10/26 11:36:00;;;;;;;2.60;2.33;;;15.30;99.90;;;;;;5033543;28;20407;-74
2023/10/26 11:38:26;;;;;;;3.00;2.70;;;15.40;99.90;;;;;;5034546;28;20462;-78
2023/10/26 11:40:53;;;;;;;5.23;2.37;;;15.40;99.90;;;;;;5033595;28;20405;-73
2023/10/26 11:43:31;;;;;;;3.47;2.37;;;15.60;99.90;;;;;;5033457;28;20603;-74
2023/10/26 11:45:56;;;;;;;3.40;3.00;;;15.50;99.90;;;;;;5034090;28;20488;-74
2023/10/26 11:48:30;;;;;;;5.47;3.13;;;15.40;99.90;;;;;;5033884;28;20443;-75
2023/10/26 11:50:57;;;;;;;9.83;3.40;;;15.30;99.90;;;;;;5033891;28;20166;-77
2023/10/26 11:53:23;;;;;;;3.70;2.33;;;15.50;99.90;;;;;;5033392;28;20934;-74
2023/10/26 11:55:50;;;;;;;3.23;2.93;;;15.80;99.90;;;;;;5033308;28;20488;-74
2023/10/26 11:58:16;;;;;;;3.10;2.80;;;16.00;99.90;;;;;;5015084;28;20450;-75
2023/10/26 12:00:42;;;;;;;3.23;2.93;;;16.30;99.90;;;;;;5033399;28;20445;-75
2023/10/26 12:03:08;;;;;;;2.50;2.30;;;16.30;99.90;;;;;;5033234;28;20530;-78
2023/10/26 12:05:34;;;;;;;2.27;2.07;;;16.30;99.90;;;;;;5033689;28;20433;-76
2023/10/26 12:08:00;;;;;;;2.13;1.70;;;16.80;99.90;;;;;;5032964;28;20178;-72
2023/10/26 12:10:26;;;;;;;1.87;1.40;;;16.80;99.90;;;;;;5033062;28;20410;-74
2023/10/26 12:12:53;;;;;;;1.97;1.73;;;17.40;99.90;;;;;;5032790;28;20453;-72
2023/10/26 12:15:20;;;;;;;2.17;1.70;;;18.70;99.90;;;;;;5032884;28;20494;-73
2023/10/26 12:17:46;;;;;;;1.70;1.20;;;19.30;99.90;;;;;;5032702;28;20967;-74
2023/10/26 12:20:13;;;;;;;1.60;1.40;;;19.70;99.90;;;;;;5032529;28;20453;-74
2023/10/26 12:22:39;;;;;;;1.30;1.20;;;19.70;99.90;;;;;;5032624;28;20512;-75
2023/10/26 12:25:06;;;;;;;2.03;1.30;;;19.90;99.90;;;;;;5032286;28;20410;-73
2023/10/26 12:27:32;;;;;;;1.77;0.90;;;20.00;99.90;;;;;;5032202;28;20175;-75
2023/10/26 12:29:58;;;;;;;1.27;0.83;;;19.80;99.90;;;;;;5032759;28;20757;-74
2023/10/26 12:32:24;;;;;;;2.23;1.60;;;20.10;99.90;;;;;;5032903;28;20194;-72
2023/10/26 12:34:50;;;;;;;3.20;1.83;;;19.30;99.90;;;;;;5032857;28;20208;-73
2023/10/26 12:37:15;;;;;;;2.30;2.10;;;19.00;99.90;;;;;;5032651;28;20203;-74
2023/10/26 12:39:41;;;;;;;5.10;4.03;;;18.10;99.90;;;;;;5032601;28;20489;-73
2023/10/26 12:42:07;;;;;;;3.17;2.40;;;18.10;99.90;;;;;;5032824;28;20254;-73
2023/10/26 12:44:32;;;;;;;6.00;4.50;;;18.20;99.90;;;;;;5032247;28;20170;-73